This is the latest recevied weather packets stored in our database for station/object OK1VOF-13. If no packets are shown the sender has not sent any weather packets the latest 10 day(s).
| Time | Temp. | Humidity | Pressure | Rain* | Wind** | Luminosity | Snow |
|---|---|---|---|---|---|---|---|
| 1777712697 | 18.33° C | 30% | 1026.3 hPa | 0 mm | - | - | - |
| 1777712398 | 18.33° C | 30% | 1026.4 hPa | 0 mm | - | - | - |
| 1777712100 | 18.33° C | 33% | 1026.5 hPa | 0 mm | - | - | - |
| 1777711801 | 18.33° C | 33% | 1026.5 hPa | 0 mm | - | - | - |
| 1777711502 | 17.78° C | 32% | 1026.5 hPa | 0 mm | - | - | - |
| 1777711203 | 17.78° C | 30% | 1026.5 hPa | 0 mm | - | - | - |
| 1777710904 | 17.78° C | 30% | 1026.5 hPa | 0 mm | - | - | - |
| 1777710606 | 17.78° C | 34% | 1026.5 hPa | 0 mm | - | - | - |
| 1777710307 | 18.89° C | 42% | 1026.5 hPa | 0 mm | - | - | - |
| 1777710008 | 17.78° C | 33% | 1026.6 hPa | 0 mm | - | - | - |
| 1777709710 | 17.22° C | 34% | 1026.6 hPa | 0 mm | - | - | - |
| 1777709410 | 17.22° C | 35% | 1026.7 hPa | 0 mm | - | - | - |
| 1777709112 | 16.67° C | 36% | 1026.7 hPa | 0 mm | - | - | - |
| 1777708813 | 16.67° C | 37% | 1026.8 hPa | 0 mm | - | - | - |
| 1777708514 | 16.11° C | 40% | 1026.8 hPa | 0 mm | - | - | - |
| 1777707917 | 15.56° C | 42% | 1026.9 hPa | 0 mm | - | - | - |
| 1777707618 | 15.56° C | 42% | 1026.9 hPa | 0 mm | - | - | - |
| 1777707319 | 15° C | 44% | 1026.9 hPa | 0 mm | - | - | - |
| 1777707020 | 15° C | 45% | 1027 hPa | 0 mm | - | - | - |
| 1777706721 | 14.44° C | 46% | 1027 hPa | 0 mm | - | - | - |
| 1777706423 | 14.44° C | 46% | 1027 hPa | 0 mm | - | - | - |
| 1777706124 | 13.89° C | 47% | 1026.9 hPa | 0 mm | - | - | - |
| 1777705825 | 13.33° C | 48% | 1026.9 hPa | 0 mm | - | - | - |
| 1777705526 | 13.33° C | 48% | 1027 hPa | 0 mm | - | - | - |
| 1777705227 | 13.33° C | 50% | 1027 hPa | 0 mm | - | - | - |
* Rain latest hour (hover to see other rain measurements)
** Current wind speed in m/s (hover to see current wind gust speed)